sensor_id;sensor_type;location;lat;lon;timestamp;temperature;humidity
49711;DHT22;35602;44.534;18.696;2023-05-02T00:01:32;22.00;53.90
49711;DHT22;35602;44.534;18.696;2023-05-02T00:06:35;22.00;53.90
49711;DHT22;35602;44.534;18.696;2023-05-02T00:11:36;22.00;53.90
49711;DHT22;35602;44.534;18.696;2023-05-02T00:16:37;22.10;54.00
49711;DHT22;35602;44.534;18.696;2023-05-02T00:21:37;22.00;53.90
49711;DHT22;35602;44.534;18.696;2023-05-02T00:26:38;22.00;53.90
49711;DHT22;35602;44.534;18.696;2023-05-02T00:31:42;22.00;53.90
49711;DHT22;35602;44.534;18.696;2023-05-02T00:36:42;22.00;54.60
49711;DHT22;35602;44.534;18.696;2023-05-02T00:41:43;22.00;54.00
49711;DHT22;35602;44.534;18.696;2023-05-02T00:46:44;22.00;54.10
49711;DHT22;35602;44.534;18.696;2023-05-02T00:51:44;22.00;54.00
49711;DHT22;35602;44.534;18.696;2023-05-02T00:56:45;22.00;54.00
49711;DHT22;35602;44.534;18.696;2023-05-02T01:10:06;22.00;54.10
49711;DHT22;35602;44.534;18.696;2023-05-02T01:15:12;22.00;54.10
49711;DHT22;35602;44.534;18.696;2023-05-02T01:20:15;22.00;54.10
49711;DHT22;35602;44.534;18.696;2023-05-02T01:25:30;22.00;54.10
49711;DHT22;35602;44.534;18.696;2023-05-02T01:30:31;22.00;54.10
49711;DHT22;35602;44.534;18.696;2023-05-02T01:35:32;22.00;54.10
49711;DHT22;35602;44.534;18.696;2023-05-02T01:40:34;22.00;54.10
49711;DHT22;35602;44.534;18.696;2023-05-02T01:45:36;22.00;54.10
49711;DHT22;35602;44.534;18.696;2023-05-02T01:50:38;22.00;54.10
49711;DHT22;35602;44.534;18.696;2023-05-02T01:55:41;22.00;54.10
49711;DHT22;35602;44.534;18.696;2023-05-02T02:00:42;22.00;54.20
49711;DHT22;35602;44.534;18.696;2023-05-02T02:05:44;22.00;54.10
49711;DHT22;35602;44.534;18.696;2023-05-02T02:10:48;22.00;54.10
49711;DHT22;35602;44.534;18.696;2023-05-02T02:15:50;22.00;54.10
49711;DHT22;35602;44.534;18.696;2023-05-02T02:20:53;22.00;54.20
49711;DHT22;35602;44.534;18.696;2023-05-02T02:25:54;22.00;54.20
49711;DHT22;35602;44.534;18.696;2023-05-02T02:30:55;22.00;54.20
49711;DHT22;35602;44.534;18.696;2023-05-02T02:36:14;22.00;54.20
49711;DHT22;35602;44.534;18.696;2023-05-02T02:41:21;22.00;54.20
49711;DHT22;35602;44.534;18.696;2023-05-02T02:46:33;22.00;54.20
49711;DHT22;35602;44.534;18.696;2023-05-02T02:51:43;22.00;54.20
49711;DHT22;35602;44.534;18.696;2023-05-02T02:56:46;22.00;54.20
49711;DHT22;35602;44.534;18.696;2023-05-02T03:01:55;22.00;54.20
49711;DHT22;35602;44.534;18.696;2023-05-02T03:06:59;22.00;54.30
49711;DHT22;35602;44.534;18.696;2023-05-02T03:12:00;22.00;54.30
49711;DHT22;35602;44.534;18.696;2023-05-02T03:17:00;22.00;54.30
49711;DHT22;35602;44.534;18.696;2023-05-02T03:22:01;22.00;54.40
49711;DHT22;35602;44.534;18.696;2023-05-02T03:27:02;22.00;54.30
49711;DHT22;35602;44.534;18.696;2023-05-02T03:32:03;22.00;54.30
49711;DHT22;35602;44.534;18.696;2023-05-02T03:37:04;22.00;54.30
49711;DHT22;35602;44.534;18.696;2023-05-02T03:42:05;22.00;54.40
49711;DHT22;35602;44.534;18.696;2023-05-02T03:47:06;22.00;54.40
49711;DHT22;35602;44.534;18.696;2023-05-02T03:52:06;22.00;54.40
49711;DHT22;35602;44.534;18.696;2023-05-02T03:57:07;22.00;54.40
49711;DHT22;35602;44.534;18.696;2023-05-02T04:02:08;22.00;54.50
49711;DHT22;35602;44.534;18.696;2023-05-02T04:07:11;22.00;54.40
49711;DHT22;35602;44.534;18.696;2023-05-02T04:12:17;22.00;54.50
49711;DHT22;35602;44.534;18.696;2023-05-02T04:17:18;22.00;54.50
49711;DHT22;35602;44.534;18.696;2023-05-02T04:22:18;22.00;54.50
49711;DHT22;35602;44.534;18.696;2023-05-02T04:27:20;22.00;54.60
49711;DHT22;35602;44.534;18.696;2023-05-02T04:32:21;22.00;54.50
49711;DHT22;35602;44.534;18.696;2023-05-02T04:37:21;22.00;54.50
49711;DHT22;35602;44.534;18.696;2023-05-02T04:42:22;22.00;54.50
49711;DHT22;35602;44.534;18.696;2023-05-02T04:47:23;22.00;54.60
49711;DHT22;35602;44.534;18.696;2023-05-02T04:52:27;22.00;54.60
49711;DHT22;35602;44.534;18.696;2023-05-02T04:57:27;22.00;54.60
49711;DHT22;35602;44.534;18.696;2023-05-02T05:02:28;22.00;54.60
49711;DHT22;35602;44.534;18.696;2023-05-02T05:07:28;22.00;54.60
49711;DHT22;35602;44.534;18.696;2023-05-02T05:12:29;22.00;54.70
49711;DHT22;35602;44.534;18.696;2023-05-02T05:17:30;22.00;54.70
49711;DHT22;35602;44.534;18.696;2023-05-02T05:22:30;22.00;54.60
49711;DHT22;35602;44.534;18.696;2023-05-02T05:27:32;22.00;54.70
49711;DHT22;35602;44.534;18.696;2023-05-02T05:32:33;22.00;54.70
49711;DHT22;35602;44.534;18.696;2023-05-02T05:37:33;22.00;54.70
49711;DHT22;35602;44.534;18.696;2023-05-02T05:42:36;22.00;54.70
49711;DHT22;35602;44.534;18.696;2023-05-02T05:47:37;22.00;54.70
49711;DHT22;35602;44.534;18.696;2023-05-02T05:52:38;22.00;54.80
49711;DHT22;35602;44.534;18.696;2023-05-02T05:57:38;22.00;54.70
49711;DHT22;35602;44.534;18.696;2023-05-02T06:02:39;22.00;54.80
49711;DHT22;35602;44.534;18.696;2023-05-02T06:07:39;22.00;54.70
49711;DHT22;35602;44.534;18.696;2023-05-02T06:12:40;22.00;54.80
49711;DHT22;35602;44.534;18.696;2023-05-02T06:17:41;22.00;54.80
49711;DHT22;35602;44.534;18.696;2023-05-02T06:22:41;22.00;54.90
49711;DHT22;35602;44.534;18.696;2023-05-02T06:27:42;22.00;55.40
49711;DHT22;35602;44.534;18.696;2023-05-02T06:32:43;22.00;54.80
49711;DHT22;35602;44.534;18.696;2023-05-02T06:37:43;22.00;54.90
49711;DHT22;35602;44.534;18.696;2023-05-02T06:42:44;22.00;54.80
49711;DHT22;35602;44.534;18.696;2023-05-02T06:47:44;22.00;54.90
49711;DHT22;35602;44.534;18.696;2023-05-02T06:52:45;22.00;55.60
49711;DHT22;35602;44.534;18.696;2023-05-02T06:57:47;22.00;54.90
49711;DHT22;35602;44.534;18.696;2023-05-02T07:02:48;22.00;54.90
49711;DHT22;35602;44.534;18.696;2023-05-02T07:07:49;22.00;54.80
49711;DHT22;35602;44.534;18.696;2023-05-02T07:12:49;22.00;54.80
49711;DHT22;35602;44.534;18.696;2023-05-02T07:17:50;22.00;54.90
49711;DHT22;35602;44.534;18.696;2023-05-02T07:22:50;22.00;54.90
49711;DHT22;35602;44.534;18.696;2023-05-02T07:27:51;22.00;54.90
49711;DHT22;35602;44.534;18.696;2023-05-02T07:32:55;22.00;54.90
49711;DHT22;35602;44.534;18.696;2023-05-02T07:37:55;22.00;55.00
49711;DHT22;35602;44.534;18.696;2023-05-02T07:42:56;22.00;54.90
49711;DHT22;35602;44.534;18.696;2023-05-02T07:47:57;22.00;55.50
49711;DHT22;35602;44.534;18.696;2023-05-02T07:52:58;22.00;54.90
49711;DHT22;35602;44.534;18.696;2023-05-02T07:57:59;22.00;54.90
49711;DHT22;35602;44.534;18.696;2023-05-02T08:03:00;22.00;55.00
49711;DHT22;35602;44.534;18.696;2023-05-02T08:08:01;22.00;54.90
49711;DHT22;35602;44.534;18.696;2023-05-02T08:13:03;22.00;55.00
49711;DHT22;35602;44.534;18.696;2023-05-02T08:18:04;22.00;54.90
49711;DHT22;35602;44.534;18.696;2023-05-02T08:23:04;22.00;55.00
49711;DHT22;35602;44.534;18.696;2023-05-02T08:28:05;22.00;55.00
49711;DHT22;35602;44.534;18.696;2023-05-02T08:33:05;22.00;55.00
49711;DHT22;35602;44.534;18.696;2023-05-02T08:38:06;22.00;55.00
49711;DHT22;35602;44.534;18.696;2023-05-02T08:43:07;22.00;55.00
49711;DHT22;35602;44.534;18.696;2023-05-02T08:48:08;22.00;55.00
49711;DHT22;35602;44.534;18.696;2023-05-02T08:53:10;22.00;55.10
49711;DHT22;35602;44.534;18.696;2023-05-02T08:58:15;22.00;55.00
49711;DHT22;35602;44.534;18.696;2023-05-02T09:03:25;22.00;55.00
49711;DHT22;35602;44.534;18.696;2023-05-02T09:08:28;22.00;55.10
49711;DHT22;35602;44.534;18.696;2023-05-02T09:13:38;22.00;55.00
49711;DHT22;35602;44.534;18.696;2023-05-02T09:18:43;22.00;55.00
49711;DHT22;35602;44.534;18.696;2023-05-02T09:23:54;22.00;55.00
49711;DHT22;35602;44.534;18.696;2023-05-02T09:28:55;22.00;55.00
49711;DHT22;35602;44.534;18.696;2023-05-02T09:33:56;22.00;55.10
49711;DHT22;35602;44.534;18.696;2023-05-02T09:39:13;22.00;55.00
49711;DHT22;35602;44.534;18.696;2023-05-02T09:44:15;22.00;55.10
49711;DHT22;35602;44.534;18.696;2023-05-02T09:49:17;22.00;55.10
49711;DHT22;35602;44.534;18.696;2023-05-02T09:54:34;22.00;55.10
49711;DHT22;35602;44.534;18.696;2023-05-02T09:59:38;22.00;55.10
49711;DHT22;35602;44.534;18.696;2023-05-02T10:04:39;22.00;55.10
49711;DHT22;35602;44.534;18.696;2023-05-02T10:09:42;22.00;55.00
49711;DHT22;35602;44.534;18.696;2023-05-02T10:14:47;22.00;55.10
49711;DHT22;35602;44.534;18.696;2023-05-02T10:20:02;22.00;55.10
49711;DHT22;35602;44.534;18.696;2023-05-02T10:25:04;22.00;55.10
49711;DHT22;35602;44.534;18.696;2023-05-02T10:30:06;22.00;55.00
49711;DHT22;35602;44.534;18.696;2023-05-02T10:35:08;22.00;55.10
49711;DHT22;35602;44.534;18.696;2023-05-02T10:40:09;22.00;55.00
49711;DHT22;35602;44.534;18.696;2023-05-02T10:45:11;22.00;55.10
49711;DHT22;35602;44.534;18.696;2023-05-02T10:50:12;22.00;55.00
49711;DHT22;35602;44.534;18.696;2023-05-02T10:55:13;22.00;55.10
49711;DHT22;35602;44.534;18.696;2023-05-02T11:00:21;22.00;55.00
49711;DHT22;35602;44.534;18.696;2023-05-02T11:05:22;22.00;55.10
49711;DHT22;35602;44.534;18.696;2023-05-02T11:10:26;22.00;55.10
49711;DHT22;35602;44.534;18.696;2023-05-02T11:21:26;22.10;55.10
49711;DHT22;35602;44.534;18.696;2023-05-02T11:26:28;22.10;55.10
49711;DHT22;35602;44.534;18.696;2023-05-02T11:31:51;22.00;55.00
49711;DHT22;35602;44.534;18.696;2023-05-02T11:36:52;22.10;55.10
49711;DHT22;35602;44.534;18.696;2023-05-02T11:41:53;22.00;55.00
49711;DHT22;35602;44.534;18.696;2023-05-02T11:46:54;22.00;55.00
49711;DHT22;35602;44.534;18.696;2023-05-02T11:51:55;22.10;55.10
49711;DHT22;35602;44.534;18.696;2023-05-02T11:56:59;22.10;55.00
49711;DHT22;35602;44.534;18.696;2023-05-02T12:02:01;22.10;55.00
49711;DHT22;35602;44.534;18.696;2023-05-02T12:07:01;22.10;55.00
49711;DHT22;35602;44.534;18.696;2023-05-02T12:12:02;22.10;55.00
49711;DHT22;35602;44.534;18.696;2023-05-02T12:17:03;22.10;55.00
49711;DHT22;35602;44.534;18.696;2023-05-02T12:22:04;22.10;55.00
49711;DHT22;35602;44.534;18.696;2023-05-02T12:27:13;22.10;55.00
49711;DHT22;35602;44.534;18.696;2023-05-02T12:32:14;22.10;54.90
49711;DHT22;35602;44.534;18.696;2023-05-02T12:37:26;22.10;55.50
49711;DHT22;35602;44.534;18.696;2023-05-02T12:42:27;22.10;54.90
49711;DHT22;35602;44.534;18.696;2023-05-02T12:47:28;22.10;54.90
49711;DHT22;35602;44.534;18.696;2023-05-02T12:57:48;22.10;54.90
49711;DHT22;35602;44.534;18.696;2023-05-02T13:02:49;22.10;54.90
49711;DHT22;35602;44.534;18.696;2023-05-02T13:07:50;22.10;54.90
49711;DHT22;35602;44.534;18.696;2023-05-02T13:12:51;22.10;54.80
49711;DHT22;35602;44.534;18.696;2023-05-02T13:17:52;22.10;54.80
49711;DHT22;35602;44.534;18.696;2023-05-02T13:22:52;22.10;54.80
49711;DHT22;35602;44.534;18.696;2023-05-02T13:27:53;22.10;54.80
49711;DHT22;35602;44.534;18.696;2023-05-02T13:32:54;22.10;54.80
49711;DHT22;35602;44.534;18.696;2023-05-02T13:37:57;22.10;54.80
49711;DHT22;35602;44.534;18.696;2023-05-02T13:42:58;22.10;54.80
49711;DHT22;35602;44.534;18.696;2023-05-02T13:47:58;22.10;54.80
49711;DHT22;35602;44.534;18.696;2023-05-02T13:52:59;22.10;54.70
49711;DHT22;35602;44.534;18.696;2023-05-02T13:58:00;22.10;54.80
49711;DHT22;35602;44.534;18.696;2023-05-02T14:03:01;22.10;54.80
49711;DHT22;35602;44.534;18.696;2023-05-02T14:08:02;22.10;54.80
49711;DHT22;35602;44.534;18.696;2023-05-02T14:13:02;22.10;54.80
49711;DHT22;35602;44.534;18.696;2023-05-02T14:18:03;22.10;54.80
49711;DHT22;35602;44.534;18.696;2023-05-02T14:23:04;22.10;54.70
49711;DHT22;35602;44.534;18.696;2023-05-02T14:28:05;22.10;54.70
49711;DHT22;35602;44.534;18.696;2023-05-02T14:33:05;22.10;54.70
49711;DHT22;35602;44.534;18.696;2023-05-02T14:38:06;22.10;54.70
49711;DHT22;35602;44.534;18.696;2023-05-02T14:43:07;22.10;54.70
49711;DHT22;35602;44.534;18.696;2023-05-02T14:48:07;22.10;54.80
49711;DHT22;35602;44.534;18.696;2023-05-02T14:53:08;22.10;54.70
49711;DHT22;35602;44.534;18.696;2023-05-02T14:58:09;22.10;54.70
49711;DHT22;35602;44.534;18.696;2023-05-02T15:03:10;22.10;54.70
49711;DHT22;35602;44.534;18.696;2023-05-02T15:08:10;22.20;54.80
49711;DHT22;35602;44.534;18.696;2023-05-02T15:13:11;22.10;54.70
49711;DHT22;35602;44.534;18.696;2023-05-02T15:18:11;22.10;54.70
49711;DHT22;35602;44.534;18.696;2023-05-02T15:23:12;22.10;54.70
49711;DHT22;35602;44.534;18.696;2023-05-02T15:28:13;22.10;54.70
49711;DHT22;35602;44.534;18.696;2023-05-02T15:33:13;22.10;54.70
49711;DHT22;35602;44.534;18.696;2023-05-02T15:38:15;22.10;54.70
49711;DHT22;35602;44.534;18.696;2023-05-02T15:43:16;22.10;54.70
49711;DHT22;35602;44.534;18.696;2023-05-02T15:48:19;22.10;54.70
49711;DHT22;35602;44.534;18.696;2023-05-02T15:53:20;22.10;54.80
49711;DHT22;35602;44.534;18.696;2023-05-02T15:58:24;22.10;54.70
49711;DHT22;35602;44.534;18.696;2023-05-02T16:03:24;22.10;54.70
49711;DHT22;35602;44.534;18.696;2023-05-02T16:08:25;22.10;54.70
49711;DHT22;35602;44.534;18.696;2023-05-02T16:13:26;22.10;55.00
49711;DHT22;35602;44.534;18.696;2023-05-02T16:18:27;22.10;54.70
49711;DHT22;35602;44.534;18.696;2023-05-02T16:23:27;22.10;54.70
49711;DHT22;35602;44.534;18.696;2023-05-02T16:28:28;22.10;54.70
49711;DHT22;35602;44.534;18.696;2023-05-02T16:33:29;22.20;54.90
49711;DHT22;35602;44.534;18.696;2023-05-02T16:38:29;22.20;54.80
49711;DHT22;35602;44.534;18.696;2023-05-02T16:43:31;22.10;54.70
49711;DHT22;35602;44.534;18.696;2023-05-02T16:48:32;22.10;54.70
49711;DHT22;35602;44.534;18.696;2023-05-02T16:53:33;22.10;54.70
49711;DHT22;35602;44.534;18.696;2023-05-02T16:58:33;22.20;54.80
49711;DHT22;35602;44.534;18.696;2023-05-02T17:03:34;22.10;54.80
49711;DHT22;35602;44.534;18.696;2023-05-02T17:08:38;22.10;54.70
49711;DHT22;35602;44.534;18.696;2023-05-02T17:13:38;22.20;54.80
49711;DHT22;35602;44.534;18.696;2023-05-02T17:18:39;22.20;54.80
49711;DHT22;35602;44.534;18.696;2023-05-02T17:23:40;22.20;54.80
49711;DHT22;35602;44.534;18.696;2023-05-02T17:28:41;22.10;54.80
49711;DHT22;35602;44.534;18.696;2023-05-02T17:33:43;22.10;54.80
49711;DHT22;35602;44.534;18.696;2023-05-02T17:38:44;22.10;54.80
49711;DHT22;35602;44.534;18.696;2023-05-02T17:43:44;22.10;54.80
49711;DHT22;35602;44.534;18.696;2023-05-02T17:48:46;22.20;54.90
49711;DHT22;35602;44.534;18.696;2023-05-02T17:53:49;22.20;54.90
49711;DHT22;35602;44.534;18.696;2023-05-02T17:58:51;22.20;54.90
49711;DHT22;35602;44.534;18.696;2023-05-02T18:03:51;22.20;54.90
49711;DHT22;35602;44.534;18.696;2023-05-02T18:08:52;22.20;54.90
49711;DHT22;35602;44.534;18.696;2023-05-02T18:13:53;22.20;55.00
49711;DHT22;35602;44.534;18.696;2023-05-02T18:18:55;22.20;55.00
49711;DHT22;35602;44.534;18.696;2023-05-02T18:23:56;22.20;55.00
49711;DHT22;35602;44.534;18.696;2023-05-02T18:28:56;22.20;55.10
49711;DHT22;35602;44.534;18.696;2023-05-02T18:33:57;22.10;55.00
49711;DHT22;35602;44.534;18.696;2023-05-02T18:38:58;22.20;55.10
49711;DHT22;35602;44.534;18.696;2023-05-02T18:43:59;22.20;55.30
49711;DHT22;35602;44.534;18.696;2023-05-02T18:49:00;22.20;55.10
49711;DHT22;35602;44.534;18.696;2023-05-02T18:54:01;22.20;55.10
49711;DHT22;35602;44.534;18.696;2023-05-02T18:59:01;22.20;55.10
49711;DHT22;35602;44.534;18.696;2023-05-02T19:04:02;22.20;55.10
49711;DHT22;35602;44.534;18.696;2023-05-02T19:09:03;22.20;55.20
49711;DHT22;35602;44.534;18.696;2023-05-02T19:14:04;22.20;55.20
49711;DHT22;35602;44.534;18.696;2023-05-02T19:19:05;22.20;55.20
49711;DHT22;35602;44.534;18.696;2023-05-02T19:24:06;22.20;55.30
49711;DHT22;35602;44.534;18.696;2023-05-02T19:29:07;22.20;55.30
49711;DHT22;35602;44.534;18.696;2023-05-02T19:34:07;22.20;55.30
49711;DHT22;35602;44.534;18.696;2023-05-02T19:39:09;22.20;55.30
49711;DHT22;35602;44.534;18.696;2023-05-02T19:44:12;22.20;55.40
49711;DHT22;35602;44.534;18.696;2023-05-02T19:49:13;22.20;55.40
49711;DHT22;35602;44.534;18.696;2023-05-02T19:54:13;22.20;55.40
49711;DHT22;35602;44.534;18.696;2023-05-02T19:59:14;22.20;55.40
49711;DHT22;35602;44.534;18.696;2023-05-02T20:04:15;22.20;55.40
49711;DHT22;35602;44.534;18.696;2023-05-02T20:09:15;22.20;55.40
49711;DHT22;35602;44.534;18.696;2023-05-02T20:14:16;22.20;55.50
49711;DHT22;35602;44.534;18.696;2023-05-02T20:19:18;22.20;55.50
49711;DHT22;35602;44.534;18.696;2023-05-02T20:24:18;22.20;55.50
49711;DHT22;35602;44.534;18.696;2023-05-02T20:29:19;22.20;55.50
49711;DHT22;35602;44.534;18.696;2023-05-02T20:34:20;22.20;55.60
49711;DHT22;35602;44.534;18.696;2023-05-02T20:39:21;22.20;55.60
49711;DHT22;35602;44.534;18.696;2023-05-02T20:44:25;22.20;55.60
49711;DHT22;35602;44.534;18.696;2023-05-02T20:49:30;22.20;55.60
49711;DHT22;35602;44.534;18.696;2023-05-02T20:54:31;22.20;55.60
49711;DHT22;35602;44.534;18.696;2023-05-02T20:59:32;22.20;55.60
49711;DHT22;35602;44.534;18.696;2023-05-02T21:04:33;22.20;55.70
49711;DHT22;35602;44.534;18.696;2023-05-02T21:09:33;22.20;55.70
49711;DHT22;35602;44.534;18.696;2023-05-02T21:14:34;22.20;55.70
49711;DHT22;35602;44.534;18.696;2023-05-02T21:19:35;22.20;55.70
49711;DHT22;35602;44.534;18.696;2023-05-02T21:24:37;22.20;55.70
49711;DHT22;35602;44.534;18.696;2023-05-02T21:29:37;22.20;55.70
49711;DHT22;35602;44.534;18.696;2023-05-02T21:34:41;22.20;56.30
49711;DHT22;35602;44.534;18.696;2023-05-02T21:39:41;22.20;55.80
49711;DHT22;35602;44.534;18.696;2023-05-02T21:44:42;22.20;55.80
49711;DHT22;35602;44.534;18.696;2023-05-02T21:49:43;22.20;55.90
49711;DHT22;35602;44.534;18.696;2023-05-02T21:54:43;22.20;55.80
49711;DHT22;35602;44.534;18.696;2023-05-02T21:59:49;22.20;56.50
49711;DHT22;35602;44.534;18.696;2023-05-02T22:04:49;22.20;55.90
49711;DHT22;35602;44.534;18.696;2023-05-02T22:09:50;22.20;55.90
49711;DHT22;35602;44.534;18.696;2023-05-02T22:14:51;22.20;55.90
49711;DHT22;35602;44.534;18.696;2023-05-02T22:19:51;22.20;55.90
49711;DHT22;35602;44.534;18.696;2023-05-02T22:24:52;22.20;55.90
49711;DHT22;35602;44.534;18.696;2023-05-02T22:29:53;22.20;55.90
49711;DHT22;35602;44.534;18.696;2023-05-02T22:34:54;22.20;56.20
49711;DHT22;35602;44.534;18.696;2023-05-02T22:39:55;22.20;55.90
49711;DHT22;35602;44.534;18.696;2023-05-02T22:44:55;22.20;56.00
49711;DHT22;35602;44.534;18.696;2023-05-02T22:49:56;22.20;56.10
49711;DHT22;35602;44.534;18.696;2023-05-02T22:54:58;22.20;56.00
49711;DHT22;35602;44.534;18.696;2023-05-02T22:59:59;22.20;56.00
49711;DHT22;35602;44.534;18.696;2023-05-02T23:05:00;22.20;56.00
49711;DHT22;35602;44.534;18.696;2023-05-02T23:10:01;22.20;56.10
49711;DHT22;35602;44.534;18.696;2023-05-02T23:15:01;22.20;56.10
49711;DHT22;35602;44.534;18.696;2023-05-02T23:20:02;22.20;56.10
49711;DHT22;35602;44.534;18.696;2023-05-02T23:25:05;22.10;56.10
49711;DHT22;35602;44.534;18.696;2023-05-02T23:30:06;22.20;56.10
49711;DHT22;35602;44.534;18.696;2023-05-02T23:35:08;22.20;56.10
49711;DHT22;35602;44.534;18.696;2023-05-02T23:40:10;22.20;56.20
49711;DHT22;35602;44.534;18.696;2023-05-02T23:45:11;22.20;56.20
49711;DHT22;35602;44.534;18.696;2023-05-02T23:50:14;22.20;56.30
49711;DHT22;35602;44.534;18.696;2023-05-02T23:55:15;22.20;56.20
